Time;durP1;ratioP1;P1;durP2;ratioP2;P2;SDS_P1;SDS_P2;PMS_P1;PMS_P2;Temp;Humidity;BMP_temperature;BMP_pressure;BME280_temperature;BME280_humidity;BME280_pressure;Samples;Min_cycle;Max_cycle;Signal;HPM_P1;HPM_P2
2021/06/24 00:01:52;;;;;;;1.00;0.90;;;14.00;99.90;;;;;;5079774;28;20196;-80
2021/06/24 00:04:18;;;;;;;1.30;1.07;;;14.10;99.90;;;;;;5079393;28;20176;-81
2021/06/24 00:06:44;;;;;;;3.57;1.10;;;14.00;99.90;;;;;;5078323;28;20181;-81
2021/06/24 00:09:10;;;;;;;1.30;1.20;;;14.10;99.90;;;;;;5080146;28;20196;-81
2021/06/24 00:11:35;;;;;;;2.20;1.10;;;14.00;99.90;;;;;;5079604;28;20649;-81
2021/06/24 00:14:02;;;;;;;1.10;1.00;;;14.00;99.90;;;;;;5078872;28;20184;-80
2021/06/24 00:16:27;;;;;;;1.07;1.00;;;14.00;99.90;;;;;;5078573;28;20180;-80
2021/06/24 00:18:54;;;;;;;1.40;1.07;;;13.90;99.90;;;;;;5079388;28;20218;-81
2021/06/24 00:21:19;;;;;;;1.33;1.17;;;14.00;99.90;;;;;;5078406;28;20201;-81
2021/06/24 00:23:45;;;;;;;2.50;1.07;;;13.90;99.90;;;;;;5080104;28;20622;-81
2021/06/24 00:26:11;;;;;;;2.53;1.20;;;13.90;99.90;;;;;;5080271;28;20251;-81
2021/06/24 00:28:37;;;;;;;2.70;1.30;;;13.90;99.90;;;;;;5080178;28;20236;-81
2021/06/24 00:31:03;;;;;;;1.20;1.10;;;13.90;99.90;;;;;;5080826;28;20176;-81
2021/06/24 00:33:30;;;;;;;1.00;0.90;;;13.90;99.90;;;;;;5080990;28;20208;-80
2021/06/24 00:35:56;;;;;;;2.63;1.50;;;13.90;99.90;;;;;;5078555;28;20177;-81
2021/06/24 00:38:22;;;;;;;1.27;1.07;;;13.90;99.90;;;;;;5080243;28;20246;-81
2021/06/24 00:40:48;;;;;;;2.37;1.23;;;14.00;99.90;;;;;;5077579;28;20200;-81
2021/06/24 00:43:16;;;;;;;1.60;1.37;;;13.90;99.90;;;;;;5080188;28;20286;-81
2021/06/24 00:45:42;;;;;;;1.87;1.53;;;13.90;99.90;;;;;;5080061;28;20184;-81
2021/06/24 00:48:09;;;;;;;1.47;1.37;;;13.90;99.90;;;;;;5078298;28;20201;-81
2021/06/24 00:50:37;;;;;;;1.33;1.17;;;13.80;99.90;;;;;;5079297;28;20181;-81
2021/06/24 00:53:03;;;;;;;1.67;1.30;;;13.80;99.90;;;;;;5079797;28;20184;-81
2021/06/24 00:55:48;;;;;;;1.37;1.10;;;13.80;99.90;;;;;;5079247;28;20215;-81
2021/06/24 00:58:22;;;;;;;1.10;1.00;;;13.80;99.90;;;;;;5084655;28;20193;-81
2021/06/24 01:00:51;;;;;;;1.70;1.47;;;13.70;99.90;;;;;;5083978;28;20220;-81
2021/06/24 01:03:18;;;;;;;1.20;1.10;;;13.70;99.90;;;;;;5082605;28;20184;-81
2021/06/24 01:05:45;;;;;;;1.20;1.10;;;13.80;99.90;;;;;;5083676;28;20176;-81
2021/06/24 01:08:14;;;;;;;1.47;1.23;;;13.80;99.90;;;;;;5083938;28;20552;-81
2021/06/24 01:10:42;;;;;;;2.77;1.20;;;13.90;99.90;;;;;;5082392;28;20180;-81
2021/06/24 01:13:08;;;;;;;1.47;1.33;;;13.90;99.90;;;;;;5082475;28;20189;-81
2021/06/24 01:15:34;;;;;;;1.37;1.20;;;13.90;99.90;;;;;;5083726;28;20192;-81
2021/06/24 01:18:00;;;;;;;1.30;1.20;;;13.80;99.90;;;;;;5085633;28;20201;-81
2021/06/24 01:20:31;;;;;;;1.50;1.40;;;13.80;99.90;;;;;;5083037;28;20269;-81
2021/06/24 01:22:57;;;;;;;1.27;1.17;;;13.80;99.90;;;;;;5084432;28;20176;-81
2021/06/24 01:25:23;;;;;;;1.40;1.30;;;13.80;99.90;;;;;;5084318;28;20654;-81
2021/06/24 01:27:57;;;;;;;1.57;1.20;;;13.70;99.90;;;;;;5083011;28;20218;-81
2021/06/24 01:30:23;;;;;;;1.57;1.20;;;13.70;99.90;;;;;;5084951;28;20181;-82
2021/06/24 01:32:49;;;;;;;2.97;1.23;;;13.60;99.90;;;;;;5085126;28;20244;-81
2021/06/24 01:35:18;;;;;;;1.10;1.00;;;13.60;99.90;;;;;;5087737;28;20187;-81
2021/06/24 01:37:44;;;;;;;1.33;1.23;;;13.50;99.90;;;;;;5083674;28;20201;-81
2021/06/24 01:40:10;;;;;;;1.70;1.23;;;13.50;99.90;;;;;;5083322;28;20212;-81
2021/06/24 01:42:36;;;;;;;1.40;1.30;;;13.60;99.90;;;;;;5083582;28;20264;-82
2021/06/24 01:45:02;;;;;;;1.73;1.57;;;13.60;99.90;;;;;;5083890;28;20204;-81
2021/06/24 01:47:28;;;;;;;1.70;1.60;;;13.60;99.90;;;;;;5084175;28;20203;-82
2021/06/24 01:49:53;;;;;;;7.23;1.60;;;13.50;99.90;;;;;;5085560;28;20177;-81
2021/06/24 01:52:19;;;;;;;3.50;1.37;;;13.50;99.90;;;;;;5086664;28;20173;-81
2021/06/24 01:54:48;;;;;;;1.60;1.30;;;13.50;99.90;;;;;;5087078;28;20174;-81
2021/06/24 01:57:16;;;;;;;1.43;1.10;;;13.50;99.90;;;;;;5086104;28;20253;-82
2021/06/24 01:59:46;;;;;;;1.27;1.17;;;13.50;99.90;;;;;;5085826;28;20179;-81
2021/06/24 02:02:12;;;;;;;1.50;1.40;;;13.50;99.90;;;;;;5084640;28;20212;-81
2021/06/24 02:04:38;;;;;;;2.03;1.47;;;13.50;99.90;;;;;;5090711;28;20181;-81
2021/06/24 02:07:04;;;;;;;1.93;1.60;;;13.40;99.90;;;;;;5093558;28;20200;-81
2021/06/24 02:09:30;;;;;;;1.70;1.40;;;13.40;99.90;;;;;;5078905;28;20181;-81
2021/06/24 02:11:58;;;;;;;4.13;1.80;;;13.40;99.90;;;;;;5079483;28;20536;-81
2021/06/24 02:14:25;;;;;;;2.30;2.10;;;13.40;99.90;;;;;;5078370;28;20176;-81
2021/06/24 02:16:51;;;;;;;2.20;1.80;;;13.50;99.90;;;;;;5078425;28;20176;-80
2021/06/24 02:19:16;;;;;;;2.50;1.90;;;13.50;99.90;;;;;;5077960;28;20186;-81
2021/06/24 02:21:42;;;;;;;2.60;2.23;;;13.50;99.90;;;;;;5079561;28;20201;-81
2021/06/24 02:24:08;;;;;;;3.57;2.63;;;13.50;99.90;;;;;;5078409;28;20190;-81
2021/06/24 02:26:33;;;;;;;2.97;2.30;;;13.50;99.90;;;;;;5079604;28;20210;-81
2021/06/24 02:28:59;;;;;;;4.67;2.53;;;13.50;99.90;;;;;;5078330;28;20628;-81
2021/06/24 02:31:25;;;;;;;4.83;2.50;;;13.60;99.90;;;;;;5078372;28;20548;-81
2021/06/24 02:33:51;;;;;;;4.83;2.47;;;13.50;99.90;;;;;;5078396;28;20658;-80
2021/06/24 02:36:16;;;;;;;3.80;2.80;;;13.60;99.90;;;;;;5080135;28;20177;-81
2021/06/24 02:38:42;;;;;;;4.33;2.37;;;13.60;99.90;;;;;;5078345;28;20201;-81
2021/06/24 02:41:08;;;;;;;3.33;2.50;;;13.60;99.90;;;;;;5078704;28;20223;-81
2021/06/24 02:43:33;;;;;;;2.27;2.07;;;13.50;99.90;;;;;;5078622;28;20179;-81
2021/06/24 02:45:59;;;;;;;2.60;1.97;;;13.50;99.90;;;;;;5079381;28;20230;-81
2021/06/24 02:48:25;;;;;;;3.03;1.83;;;13.50;99.90;;;;;;5080040;28;20743;-81
2021/06/24 02:50:50;;;;;;;3.83;1.73;;;13.50;99.90;;;;;;5081364;28;20175;-81
2021/06/24 02:53:17;;;;;;;3.37;1.80;;;13.50;99.90;;;;;;5079404;28;20176;-81
2021/06/24 02:55:43;;;;;;;2.10;1.90;;;13.50;99.90;;;;;;5080062;28;20559;-81
2021/06/24 02:58:11;;;;;;;2.83;1.80;;;13.50;99.90;;;;;;5079181;28;20200;-81
2021/06/24 03:00:36;;;;;;;1.80;1.70;;;13.50;99.90;;;;;;5081226;28;20188;-81
2021/06/24 03:03:04;;;;;;;3.40;2.00;;;13.50;99.90;;;;;;5081476;28;20169;-81
2021/06/24 03:05:30;;;;;;;2.47;2.10;;;13.50;99.90;;;;;;5081308;28;20169;-81
2021/06/24 03:07:55;;;;;;;2.10;1.90;;;13.50;99.90;;;;;;5082056;28;20529;-81
2021/06/24 03:10:22;;;;;;;4.07;2.10;;;13.40;99.90;;;;;;5080000;28;20179;-80
2021/06/24 03:12:48;;;;;;;2.23;1.80;;;13.40;99.90;;;;;;5080310;28;20644;-81
2021/06/24 03:15:14;;;;;;;2.10;1.83;;;13.40;99.90;;;;;;5081950;28;20200;-80
2021/06/24 03:17:40;;;;;;;4.27;1.80;;;13.40;99.90;;;;;;5083198;28;20191;-80
2021/06/24 03:20:08;;;;;;;2.10;1.87;;;13.40;99.90;;;;;;5077371;28;20246;-80
2021/06/24 03:22:37;;;;;;;2.17;1.90;;;13.40;99.90;;;;;;5077231;28;20197;-80
2021/06/24 03:25:07;;;;;;;2.20;1.93;;;13.40;99.90;;;;;;5078940;28;20179;-80
2021/06/24 03:27:33;;;;;;;5.83;2.17;;;13.40;99.90;;;;;;5077365;28;20682;-80
2021/06/24 03:29:59;;;;;;;2.20;1.73;;;13.40;99.90;;;;;;5078841;28;20168;-80
2021/06/24 03:32:25;;;;;;;2.40;2.20;;;13.40;99.90;;;;;;5079334;28;20181;-80
2021/06/24 03:34:50;;;;;;;3.37;2.03;;;13.40;99.90;;;;;;5077878;28;20175;-80
2021/06/24 03:37:16;;;;;;;2.27;2.07;;;13.40;99.90;;;;;;5078530;28;20199;-80
2021/06/24 03:39:44;;;;;;;4.83;1.93;;;13.30;99.90;;;;;;5079210;28;20174;-80
2021/06/24 03:42:09;;;;;;;5.20;2.30;;;13.30;99.90;;;;;;5077969;28;20200;-80
2021/06/24 03:44:35;;;;;;;1.90;1.80;;;13.40;99.90;;;;;;5080045;28;20175;-80
2021/06/24 03:47:01;;;;;;;3.50;2.30;;;13.40;99.90;;;;;;5079033;28;20179;-80
2021/06/24 03:49:26;;;;;;;3.10;2.57;;;13.40;99.90;;;;;;5078392;28;20660;-80
2021/06/24 03:51:52;;;;;;;3.60;2.63;;;13.40;99.90;;;;;;5080064;28;20178;-80
2021/06/24 03:54:18;;;;;;;4.73;2.80;;;13.40;99.90;;;;;;5079043;28;20180;-80
2021/06/24 03:56:44;;;;;;;2.30;2.10;;;13.40;99.90;;;;;;5078844;28;20176;-80
2021/06/24 03:59:09;;;;;;;2.43;2.23;;;13.40;99.90;;;;;;5080947;28;20222;-80
2021/06/24 04:01:42;;;;;;;3.70;2.57;;;13.50;99.90;;;;;;5079308;28;20209;-80
2021/06/24 04:04:09;;;;;;;4.37;2.50;;;13.40;99.90;;;;;;5077985;28;20256;-80
2021/06/24 04:06:34;;;;;;;2.80;2.60;;;13.40;99.90;;;;;;5078467;28;20173;-80
2021/06/24 04:09:00;;;;;;;3.80;2.80;;;13.40;99.90;;;;;;5078951;28;20556;-81
2021/06/24 04:11:26;;;;;;;2.67;2.47;;;13.40;99.90;;;;;;5080121;28;20183;-80
2021/06/24 04:13:51;;;;;;;3.97;2.73;;;13.40;99.90;;;;;;5079535;28;20228;-81
2021/06/24 04:16:17;;;;;;;7.17;2.77;;;13.30;99.90;;;;;;5079957;28;20187;-81
2021/06/24 04:18:42;;;;;;;4.10;3.03;;;13.30;99.90;;;;;;5079356;28;20226;-80
2021/06/24 04:21:08;;;;;;;3.07;2.40;;;13.30;99.90;;;;;;5078959;28;20207;-80
2021/06/24 04:23:34;;;;;;;2.93;2.63;;;13.30;99.90;;;;;;5079942;28;20177;-80
2021/06/24 04:25:59;;;;;;;7.37;2.93;;;13.40;99.90;;;;;;5080020;28;20183;-80
2021/06/24 04:28:25;;;;;;;4.60;2.40;;;13.40;99.90;;;;;;5078021;28;20208;-80
2021/06/24 04:30:51;;;;;;;3.23;2.60;;;13.50;99.90;;;;;;5079538;28;20184;-80
2021/06/24 04:33:17;;;;;;;5.37;2.73;;;13.50;99.90;;;;;;5080906;28;20180;-80
2021/06/24 04:35:42;;;;;;;3.07;2.33;;;13.50;99.90;;;;;;5082920;28;20179;-80
2021/06/24 04:38:08;;;;;;;3.53;2.13;;;13.50;99.90;;;;;;5081544;28;20201;-80
2021/06/24 04:40:34;;;;;;;2.33;2.10;;;13.60;99.90;;;;;;5080925;28;20203;-80
2021/06/24 04:42:59;;;;;;;2.20;2.00;;;13.70;99.90;;;;;;5083102;28;20180;-81
2021/06/24 04:45:25;;;;;;;2.43;1.73;;;13.70;99.90;;;;;;5081325;28;20173;-81
2021/06/24 04:47:51;;;;;;;2.57;2.00;;;13.70;99.90;;;;;;5081632;28;20210;-81
2021/06/24 04:50:17;;;;;;;2.20;1.80;;;13.80;99.90;;;;;;5081048;28;20720;-81
2021/06/24 04:52:43;;;;;;;3.40;1.80;;;13.90;99.90;;;;;;5080831;28;20184;-81
2021/06/24 04:55:09;;;;;;;2.67;1.70;;;14.00;99.90;;;;;;5082313;28;20243;-81
2021/06/24 04:57:35;;;;;;;2.67;1.60;;;14.00;99.90;;;;;;5082102;28;20204;-81
2021/06/24 05:00:03;;;;;;;4.20;1.60;;;14.00;99.90;;;;;;5081204;28;20183;-81
2021/06/24 05:02:28;;;;;;;2.10;1.90;;;14.10;99.90;;;;;;5080774;28;20587;-81
2021/06/24 05:04:55;;;;;;;1.90;1.80;;;14.10;99.90;;;;;;5079931;28;20327;-79
2021/06/24 05:07:21;;;;;;;1.50;1.40;;;14.10;99.90;;;;;;5079533;28;20208;-78
2021/06/24 05:09:46;;;;;;;2.70;1.37;;;14.10;99.90;;;;;;5078506;28;20165;-78
2021/06/24 05:12:13;;;;;;;1.40;1.23;;;14.10;99.90;;;;;;5078689;28;20206;-79
2021/06/24 05:14:40;;;;;;;3.87;1.50;;;14.20;99.90;;;;;;5078468;28;20184;-78
2021/06/24 05:17:11;;;;;;;4.67;1.47;;;14.20;99.90;;;;;;5078235;28;20216;-79
2021/06/24 05:19:37;;;;;;;1.60;1.40;;;14.20;99.90;;;;;;5077302;28;20210;-79
2021/06/24 05:22:03;;;;;;;1.80;1.40;;;14.20;99.90;;;;;;5077893;28;20231;-78
2021/06/24 05:24:29;;;;;;;1.57;1.47;;;14.30;99.90;;;;;;5076362;28;20177;-78
2021/06/24 05:26:54;;;;;;;2.00;1.50;;;14.30;99.90;;;;;;5077483;28;20192;-78
2021/06/24 05:29:20;;;;;;;2.63;1.97;;;14.40;99.90;;;;;;5077647;28;20165;-79
2021/06/24 05:31:46;;;;;;;7.07;1.53;;;14.50;99.90;;;;;;5074818;28;20181;-78
2021/06/24 05:34:12;;;;;;;1.63;1.50;;;14.50;99.90;;;;;;5076063;28;20626;-79
2021/06/24 05:36:38;;;;;;;2.87;1.43;;;14.60;99.90;;;;;;5075140;28;20207;-78
2021/06/24 05:39:04;;;;;;;3.50;1.80;;;14.50;99.90;;;;;;5077690;28;20547;-78
2021/06/24 05:41:30;;;;;;;2.50;1.40;;;14.70;99.90;;;;;;5077560;28;20662;-79
2021/06/24 05:43:55;;;;;;;3.30;1.40;;;14.70;99.90;;;;;;5076532;28;20170;-78
2021/06/24 05:46:21;;;;;;;1.50;1.40;;;14.70;99.90;;;;;;5077707;28;20314;-78
2021/06/24 05:48:51;;;;;;;1.30;1.20;;;14.80;99.90;;;;;;5078750;28;20200;-79
2021/06/24 05:51:17;;;;;;;1.50;1.20;;;14.80;99.90;;;;;;5078566;28;20195;-79
2021/06/24 05:53:43;;;;;;;1.20;1.03;;;14.90;99.90;;;;;;5077402;28;20177;-79
2021/06/24 05:56:10;;;;;;;1.57;1.20;;;14.90;99.90;;;;;;5076735;28;20280;-78
2021/06/24 05:58:36;;;;;;;2.60;1.37;;;15.00;99.90;;;;;;5078680;28;20192;-79
2021/06/24 06:01:02;;;;;;;3.23;1.50;;;15.10;99.90;;;;;;5078282;28;20204;-78
2021/06/24 06:03:28;;;;;;;2.00;1.40;;;15.20;99.90;;;;;;5078792;28;20173;-79
2021/06/24 06:05:54;;;;;;;3.90;1.30;;;15.20;99.90;;;;;;5079162;28;20218;-79
2021/06/24 06:08:20;;;;;;;2.47;1.40;;;15.30;99.90;;;;;;5079057;28;20673;-79
2021/06/24 06:10:46;;;;;;;1.43;1.33;;;15.40;99.90;;;;;;5077665;28;20177;-80
2021/06/24 06:13:12;;;;;;;1.63;1.53;;;15.50;99.90;;;;;;5080220;28;20584;-80
2021/06/24 06:15:40;;;;;;;1.67;1.40;;;15.60;99.90;;;;;;5079163;28;20238;-80
2021/06/24 06:18:24;;;;;;;1.83;1.70;;;15.70;99.90;;;;;;5078430;28;20650;-80
2021/06/24 06:20:50;;;;;;;2.00;1.43;;;15.80;99.90;;;;;;5078974;28;20278;-80
2021/06/24 06:23:18;;;;;;;1.93;1.30;;;15.80;99.90;;;;;;5078818;28;20181;-80
2021/06/24 06:25:47;;;;;;;2.60;1.67;;;15.90;99.90;;;;;;5078285;28;20183;-80
2021/06/24 06:28:14;;;;;;;1.70;1.30;;;15.90;99.90;;;;;;5078641;28;20212;-80
2021/06/24 06:30:40;;;;;;;1.53;1.40;;;16.00;99.90;;;;;;5079826;28;20260;-80
2021/06/24 06:33:06;;;;;;;2.90;1.10;;;16.10;99.90;;;;;;5078806;28;20234;-81
2021/06/24 06:35:32;;;;;;;1.80;1.10;;;16.20;99.90;;;;;;5079119;28;20181;-80
2021/06/24 06:37:58;;;;;;;3.33;1.50;;;16.30;99.90;;;;;;5080488;28;20208;-80
2021/06/24 06:40:23;;;;;;;1.30;1.20;;;16.30;99.90;;;;;;5078406;28;20251;-80
2021/06/24 06:42:49;;;;;;;4.23;1.40;;;16.30;99.90;;;;;;5078506;28;20538;-80
2021/06/24 06:45:18;;;;;;;2.03;1.20;;;16.50;99.90;;;;;;5077611;28;20216;-80
2021/06/24 06:47:45;;;;;;;1.20;1.00;;;16.50;99.90;;;;;;5078209;28;20196;-80
2021/06/24 06:50:12;;;;;;;1.00;0.90;;;16.60;99.90;;;;;;5077982;28;20627;-80
2021/06/24 06:52:37;;;;;;;1.40;1.03;;;16.60;99.90;;;;;;5078149;28;20183;-80
2021/06/24 06:55:04;;;;;;;1.30;1.20;;;16.70;99.90;;;;;;5076189;28;20208;-79
2021/06/24 06:57:30;;;;;;;1.20;0.83;;;16.70;99.90;;;;;;5078137;28;20682;-79
2021/06/24 06:59:55;;;;;;;1.60;1.30;;;16.80;99.90;;;;;;5077736;28;20185;-79
2021/06/24 07:02:21;;;;;;;3.03;1.20;;;16.80;99.90;;;;;;5079099;28;20669;-79
2021/06/24 07:04:47;;;;;;;2.13;1.00;;;16.90;99.90;;;;;;5077513;28;20176;-80
2021/06/24 07:07:12;;;;;;;2.27;1.20;;;16.90;99.90;;;;;;5077750;28;20212;-80
2021/06/24 07:09:39;;;;;;;1.50;1.40;;;17.00;99.90;;;;;;5079004;28;20657;-80
2021/06/24 07:12:05;;;;;;;1.40;1.30;;;17.00;99.90;;;;;;5077988;28;20200;-80
2021/06/24 07:14:30;;;;;;;1.87;1.57;;;17.10;99.90;;;;;;5078534;28;20560;-80
2021/06/24 07:16:56;;;;;;;2.93;1.13;;;17.20;99.90;;;;;;5078964;28;20188;-80
2021/06/24 07:19:21;;;;;;;1.50;1.40;;;17.30;99.90;;;;;;5078915;28;20264;-80
2021/06/24 07:21:47;;;;;;;2.33;1.30;;;17.30;99.90;;;;;;5077695;28;20205;-80
2021/06/24 07:24:14;;;;;;;2.13;1.50;;;17.40;99.90;;;;;;5079360;28;20173;-80
2021/06/24 07:26:40;;;;;;;1.60;1.47;;;17.50;99.90;;;;;;5077885;28;20173;-81
2021/06/24 07:29:06;;;;;;;1.50;1.40;;;17.70;99.90;;;;;;5078936;28;20216;-80
2021/06/24 07:31:31;;;;;;;1.80;1.30;;;17.70;99.90;;;;;;5077702;28;20184;-80
2021/06/24 07:33:58;;;;;;;4.10;1.50;;;17.80;99.90;;;;;;5078804;28;20238;-80
2021/06/24 07:36:24;;;;;;;3.87;1.50;;;17.90;99.90;;;;;;5078466;28;20203;-81
2021/06/24 07:38:50;;;;;;;2.27;1.50;;;18.00;99.90;;;;;;5077216;28;20692;-81
2021/06/24 07:41:15;;;;;;;1.83;1.40;;;18.00;99.90;;;;;;5078778;28;20253;-80
2021/06/24 07:43:41;;;;;;;1.93;1.83;;;18.20;99.90;;;;;;5079258;28;20169;-80
2021/06/24 07:46:07;;;;;;;2.23;2.00;;;18.30;99.90;;;;;;5078321;28;20255;-80
2021/06/24 07:48:32;;;;;;;3.07;2.10;;;18.30;99.90;;;;;;5077945;28;20189;-80
2021/06/24 07:50:58;;;;;;;2.13;1.93;;;18.30;99.90;;;;;;5077681;28;20169;-80
2021/06/24 07:53:23;;;;;;;4.23;2.03;;;18.30;99.90;;;;;;5077126;28;20170;-79
2021/06/24 07:55:49;;;;;;;3.63;1.97;;;18.40;99.90;;;;;;5077664;28;20173;-80
2021/06/24 07:58:15;;;;;;;2.73;2.00;;;18.60;99.90;;;;;;5076165;28;20213;-80
2021/06/24 08:00:41;;;;;;;2.13;1.93;;;18.60;99.90;;;;;;5076081;28;20212;-80
2021/06/24 08:03:07;;;;;;;2.17;1.97;;;18.70;99.90;;;;;;5078427;28;20231;-80
2021/06/24 08:05:33;;;;;;;3.27;2.00;;;18.70;99.90;;;;;;5076304;28;20244;-80
2021/06/24 08:07:59;;;;;;;2.00;1.80;;;18.80;99.90;;;;;;5076865;28;20236;-80
2021/06/24 08:10:25;;;;;;;1.80;1.70;;;18.80;99.90;;;;;;5078260;28;20186;-80
2021/06/24 08:12:50;;;;;;;1.93;1.73;;;19.00;99.90;;;;;;5077214;28;20184;-80
2021/06/24 08:15:20;;;;;;;2.67;1.70;;;19.10;99.90;;;;;;5078847;28;20174;-80
2021/06/24 08:17:47;;;;;;;2.17;1.87;;;19.10;99.90;;;;;;5078652;28;20204;-80
2021/06/24 08:20:14;;;;;;;2.33;1.63;;;19.20;99.90;;;;;;5077776;28;20193;-80
2021/06/24 08:22:40;;;;;;;3.47;1.80;;;19.40;99.90;;;;;;5076961;28;20198;-80
2021/06/24 08:25:06;;;;;;;2.87;2.27;;;19.50;99.90;;;;;;5077312;28;20182;-79
2021/06/24 08:27:34;;;;;;;1.77;1.67;;;19.60;99.90;;;;;;5076875;28;20216;-80
2021/06/24 08:29:59;;;;;;;2.90;1.90;;;19.80;99.90;;;;;;5076962;28;20239;-80
2021/06/24 08:32:25;;;;;;;1.67;1.57;;;20.00;99.90;;;;;;5078670;28;20177;-80
2021/06/24 08:34:51;;;;;;;2.40;1.60;;;20.20;99.90;;;;;;5079013;28;20173;-80
2021/06/24 08:37:17;;;;;;;1.50;1.40;;;20.30;99.90;;;;;;5078840;28;20190;-79
2021/06/24 08:39:43;;;;;;;3.47;1.67;;;20.40;99.90;;;;;;5079721;28;20198;-79
2021/06/24 08:42:11;;;;;;;1.70;1.43;;;20.50;99.90;;;;;;5079286;28;20208;-80
2021/06/24 08:44:39;;;;;;;2.27;1.50;;;20.60;99.90;;;;;;5077265;28;20168;-79
2021/06/24 08:47:06;;;;;;;1.33;1.23;;;20.50;99.90;;;;;;5076181;28;20295;-79
2021/06/24 08:49:33;;;;;;;1.67;1.37;;;20.70;99.90;;;;;;5077271;28;20174;-79
2021/06/24 08:51:58;;;;;;;1.93;1.10;;;20.90;99.90;;;;;;5076599;28;20175;-79
2021/06/24 08:54:24;;;;;;;1.50;1.40;;;21.30;99.90;;;;;;5075350;28;20182;-79
2021/06/24 08:56:50;;;;;;;1.87;1.40;;;21.70;99.90;;;;;;5076963;28;20250;-79
2021/06/24 08:59:16;;;;;;;2.20;1.40;;;21.60;99.90;;;;;;5077836;28;20180;-79
2021/06/24 09:01:48;;;;;;;1.07;1.00;;;21.80;99.90;;;;;;5075699;28;20260;-79
2021/06/24 09:04:19;;;;;;;1.90;1.27;;;21.60;99.90;;;;;;5077380;28;20169;-79
2021/06/24 09:06:45;;;;;;;2.90;1.50;;;21.80;99.90;;;;;;5077606;28;20205;-79
2021/06/24 09:09:24;;;;;;;2.70;1.80;;;22.10;99.90;;;;;;5076195;28;20559;-79
2021/06/24 09:12:06;;;;;;;2.77;1.00;;;22.20;99.90;;;;;;5076251;28;20180;-79
2021/06/24 09:14:48;;;;;;;1.40;1.30;;;22.40;99.90;;;;;;5078109;28;20177;-79
2021/06/24 09:17:34;;;;;;;1.50;1.40;;;22.50;99.90;;;;;;5079059;28;20670;-79
2021/06/24 09:20:01;;;;;;;1.47;1.37;;;22.40;99.90;;;;;;5080238;28;20172;-79
2021/06/24 09:22:27;;;;;;;1.70;1.50;;;22.30;99.90;;;;;;5081995;28;20254;-79
2021/06/24 09:24:52;;;;;;;1.30;1.20;;;21.90;99.90;;;;;;5080248;28;20635;-79
2021/06/24 09:27:18;;;;;;;1.37;1.27;;;21.80;99.90;;;;;;5080948;28;20238;-79
2021/06/24 09:30:01;;;;;;;3.17;1.53;;;21.90;99.90;;;;;;5079280;28;20180;-79
2021/06/24 09:32:43;;;;;;;1.33;1.10;;;22.20;99.90;;;;;;5081172;28;20169;-79
2021/06/24 09:35:20;;;;;;;1.40;1.10;;;22.50;99.90;;;;;;5079239;28;20667;-79
2021/06/24 09:38:07;;;;;;;1.27;1.17;;;22.80;99.90;;;;;;5080899;28;20223;-79
2021/06/24 09:40:41;;;;;;;0.90;0.90;;;23.20;99.90;;;;;;5080399;28;20222;-79
2021/06/24 09:43:12;;;;;;;1.37;1.27;;;23.70;99.90;;;;;;5081927;28;20641;-79
2021/06/24 09:45:38;;;;;;;1.33;1.23;;;23.80;99.90;;;;;;5080059;28;20638;-79
2021/06/24 09:48:09;;;;;;;1.50;1.40;;;23.60;99.90;;;;;;5079205;28;20189;-79
2021/06/24 09:50:35;;;;;;;1.53;1.43;;;23.60;99.90;;;;;;5077788;28;20666;-78
2021/06/24 09:53:10;;;;;;;1.70;1.60;;;23.40;99.90;;;;;;5079962;28;20231;-79
2021/06/24 09:55:36;;;;;;;1.90;1.40;;;23.00;99.90;;;;;;5079475;28;20187;-79
2021/06/24 09:58:16;;;;;;;1.90;1.70;;;22.80;99.90;;;;;;5079116;28;20201;-79
2021/06/24 10:00:50;;;;;;;1.57;1.20;;;22.60;99.90;;;;;;5079182;28;20694;-79
2021/06/24 10:03:16;;;;;;;1.40;1.30;;;22.30;99.90;;;;;;5079316;28;20177;-79
2021/06/24 10:05:43;;;;;;;3.73;2.40;;;22.00;99.90;;;;;;5077743;28;20173;-79
2021/06/24 10:08:09;;;;;;;1.60;1.50;;;22.00;99.90;;;;;;5079457;28;20195;-79
2021/06/24 10:10:36;;;;;;;3.93;1.27;;;22.00;99.90;;;;;;5079097;28;20264;-79
2021/06/24 10:13:01;;;;;;;1.47;1.37;;;21.80;99.90;;;;;;5079451;28;20180;-79
2021/06/24 10:15:32;;;;;;;3.23;1.30;;;21.60;99.90;;;;;;5078060;28;20180;-79
2021/06/24 10:17:58;;;;;;;1.37;1.27;;;22.10;99.90;;;;;;5079477;28;20189;-79
2021/06/24 10:20:29;;;;;;;2.10;1.37;;;22.80;99.90;;;;;;5077612;28;20204;-79
2021/06/24 10:23:09;;;;;;;1.77;1.40;;;23.40;99.90;;;;;;5078742;28;20161;-83
2021/06/24 10:25:37;;;;;;;1.93;1.73;;;23.80;99.90;;;;;;5079888;28;20175;-80
2021/06/24 10:28:04;;;;;;;2.43;1.70;;;23.90;99.90;;;;;;5087557;28;20218;-79
2021/06/24 10:30:37;;;;;;;2.57;1.60;;;23.50;99.90;;;;;;5087691;28;20200;-79
2021/06/24 10:33:08;;;;;;;1.60;1.50;;;23.00;99.90;;;;;;5088463;28;20167;-78
2021/06/24 10:35:36;;;;;;;1.73;1.10;;;22.60;99.90;;;;;;5087541;28;20198;-79
2021/06/24 10:38:03;;;;;;;1.80;1.70;;;22.30;99.90;;;;;;5087873;28;20187;-78
2021/06/24 10:40:36;;;;;;;3.60;1.70;;;22.00;99.90;;;;;;5084343;28;20287;-79
2021/06/24 10:43:07;;;;;;;3.87;1.60;;;21.60;99.90;;;;;;5085486;28;20164;-77
2021/06/24 10:45:34;;;;;;;3.37;1.57;;;21.40;99.90;;;;;;5085128;28;20506;-79
2021/06/24 10:48:30;;;;;;;2.17;1.70;;;21.20;99.90;;;;;;5087374;28;20283;-80
2021/06/24 10:51:02;;;;;;;1.70;1.50;;;21.10;99.90;;;;;;5088325;28;20184;-79
2021/06/24 10:53:27;;;;;;;1.83;1.60;;;20.90;99.90;;;;;;5089148;28;20167;-79
2021/06/24 10:55:53;;;;;;;3.23;1.60;;;20.90;99.90;;;;;;5086994;28;20192;-79
2021/06/24 10:58:19;;;;;;;3.00;1.90;;;21.50;99.90;;;;;;5078876;28;20208;-80
2021/06/24 11:00:48;;;;;;;2.13;1.80;;;22.30;99.90;;;;;;5077594;28;20721;-80
2021/06/24 11:03:16;;;;;;;1.70;1.60;;;23.00;99.90;;;;;;5080175;28;20212;-79
2021/06/24 11:05:42;;;;;;;1.57;1.47;;;23.70;99.90;;;;;;5080247;28;20230;-80
2021/06/24 11:08:19;;;;;;;1.47;1.37;;;24.10;99.90;;;;;;5078471;28;20201;-80
2021/06/24 11:10:57;;;;;;;1.33;1.20;;;24.40;99.90;;;;;;5078587;28;20722;-80
2021/06/24 11:19:03;;;;;;;1.10;1.00;;;25.40;99.90;;;;;;5079859;28;20251;-79
2021/06/24 11:21:28;;;;;;;1.80;1.00;;;25.40;99.90;;;;;;5079875;28;20287;-84
2021/06/24 11:24:01;;;;;;;1.30;1.17;;;25.50;99.90;;;;;;5081133;28;20209;-84
2021/06/24 11:26:27;;;;;;;2.13;1.00;;;25.40;99.90;;;;;;5081426;28;20234;-84
2021/06/24 11:29:01;;;;;;;1.03;0.87;;;24.70;99.90;;;;;;5080509;28;20247;-85
2021/06/24 11:34:26;;;;;;;2.10;1.00;;;23.10;99.90;;;;;;5081594;28;20223;-84
2021/06/24 11:36:54;;;;;;;1.00;0.90;;;22.20;99.90;;;;;;5079888;28;20525;-84
2021/06/24 11:39:24;;;;;;;1.10;1.00;;;21.70;99.90;;;;;;5080991;28;20610;-84
2021/06/24 11:41:55;;;;;;;1.30;1.10;;;21.40;99.90;;;;;;5080891;28;20192;-84
2021/06/24 11:44:32;;;;;;;1.63;1.10;;;21.10;99.90;;;;;;5079054;28;20188;-83
2021/06/24 11:47:07;;;;;;;1.23;1.03;;;20.80;99.90;;;;;;5079382;28;20168;-84
2021/06/24 12:01:54;;;;;;;1.67;1.57;;;20.70;99.90;;;;;;5082877;28;20196;-84
2021/06/24 12:04:30;;;;;;;3.77;1.80;;;20.80;99.90;;;;;;5082725;28;20176;-85
2021/06/24 12:07:00;;;;;;;3.07;1.90;;;21.10;99.90;;;;;;5081796;28;20199;-84
2021/06/24 12:09:28;;;;;;;1.77;1.67;;;21.20;99.90;;;;;;5081113;28;20168;-84
2021/06/24 12:11:58;;;;;;;2.13;1.40;;;21.40;99.90;;;;;;5081703;28;20184;-85
2021/06/24 12:14:30;;;;;;;1.80;1.70;;;21.50;99.90;;;;;;5080771;28;20169;-84
2021/06/24 12:17:26;;;;;;;1.40;1.30;;;22.10;99.90;;;;;;5080165;28;20183;-85
2021/06/24 12:19:56;;;;;;;3.30;1.87;;;23.80;99.90;;;;;;5080635;28;20176;-84
2021/06/24 12:22:37;;;;;;;1.40;1.20;;;25.00;99.90;;;;;;5079887;28;20272;-85
2021/06/24 12:25:24;;;;;;;1.60;1.50;;;24.90;99.90;;;;;;5084328;28;20177;-84
2021/06/24 12:28:11;;;;;;;1.27;1.17;;;25.70;99.90;;;;;;5078769;28;20279;-84
2021/06/24 12:30:43;;;;;;;1.70;1.30;;;26.50;99.90;;;;;;5080004;28;20166;-84
2021/06/24 12:33:12;;;;;;;1.20;1.10;;;27.40;99.90;;;;;;5079310;28;20505;-85
2021/06/24 12:35:49;;;;;;;1.20;1.00;;;27.60;99.90;;;;;;5080824;28;20173;-84
2021/06/24 12:38:18;;;;;;;1.63;0.80;;;27.90;99.90;;;;;;5080332;28;20204;-83
2021/06/24 12:41:13;;;;;;;1.30;1.10;;;28.40;99.90;;;;;;5079125;28;20208;-83
2021/06/24 12:43:39;;;;;;;1.10;1.00;;;28.50;99.90;;;;;;5076692;28;20182;-83
2021/06/24 12:46:07;;;;;;;1.80;1.00;;;28.90;99.90;;;;;;5081420;28;20176;-83
2021/06/24 12:48:36;;;;;;;1.53;1.30;;;29.10;99.90;;;;;;5080215;28;20200;-83
2021/06/24 12:51:23;;;;;;;1.83;1.03;;;28.70;99.90;;;;;;5081460;28;20253;-83
2021/06/24 12:53:53;;;;;;;1.40;1.20;;;29.00;99.90;;;;;;5085183;28;20185;-84
2021/06/24 12:56:20;;;;;;;0.97;0.87;;;28.70;99.90;;;;;;5087654;28;20184;-82
2021/06/24 12:58:46;;;;;;;2.23;1.00;;;27.70;99.90;;;;;;5083636;28;20200;-85
2021/06/24 13:01:14;;;;;;;2.20;0.80;;;27.70;99.90;;;;;;5083460;28;20236;-85
2021/06/24 13:03:47;;;;;;;1.00;0.90;;;26.70;99.90;;;;;;5083895;28;20180;-85
2021/06/24 13:06:18;;;;;;;0.90;0.83;;;25.90;99.90;;;;;;5085315;28;20172;-85
2021/06/24 13:09:03;;;;;;;0.63;0.60;;;24.90;99.90;;;;;;5083719;28;20193;-85
2021/06/24 13:11:34;;;;;;;0.90;0.70;;;24.20;99.90;;;;;;5084587;28;20184;-85
2021/06/24 13:14:09;;;;;;;0.70;0.70;;;23.60;99.90;;;;;;5084133;28;20200;-85